Time,TemperatureF,DewpointF,PressureIn,WindDirection,WindDirectionDegrees,WindSpeedMPH,WindSpeedGustMPH,Humidity,HourlyPrecipIn,Conditions,Clouds,dailyrainin,SolarRadiationWatts/m^2,SoftwareType,DateUTC
2013-04-25 00:12:00,42.7,34.0,30.24,SSE,155,0.0,1.0,72,0.00,,,0.00,0,weatherlink.com 1.10,2013-04-25 05:12:00,
2013-04-25 00:27:00,42.5,34.0,30.25,SSE,155,0.0,3.0,73,0.00,,,0.00,0,weatherlink.com 1.10,2013-04-25 05:27:00,
2013-04-25 00:42:00,42.6,35.0,30.26,SSE,155,0.0,4.0,74,0.00,,,0.00,0,weatherlink.com 1.10,2013-04-25 05:42:00,
2013-04-25 00:57:00,42.5,35.0,30.27,SSE,155,0.0,2.0,74,0.00,,,0.00,0,weatherlink.com 1.10,2013-04-25 05:57:00,
2013-04-25 01:12:00,42.1,34.0,30.27,SSE,155,0.0,1.0,74,0.00,,,0.00,0,weatherlink.com 1.10,2013-04-25 06:12:00,
2013-04-25 01:27:00,41.7,34.0,30.27,SSE,155,0.0,2.0,74,0.00,,,0.00,0,weatherlink.com 1.10,2013-04-25 06:27:00,
2013-04-25 01:42:00,41.5,34.0,30.26,SSE,155,0.0,3.0,75,0.00,,,0.00,0,weatherlink.com 1.10,2013-04-25 06:42:00,
2013-04-25 01:57:00,41.3,34.0,30.27,SSE,155,0.0,2.0,75,0.00,,,0.00,0,weatherlink.com 1.10,2013-04-25 06:57:00,
2013-04-25 02:12:00,40.7,33.0,30.27,SSE,155,0.0,2.0,75,0.00,,,0.00,0,weatherlink.com 1.10,2013-04-25 07:12:00,
2013-04-25 02:27:00,40.1,33.0,30.27,SSE,155,0.0,3.0,77,0.00,,,0.00,0,weatherlink.com 1.10,2013-04-25 07:27:00,
2013-04-25 02:42:00,39.8,33.0,30.27,SSE,155,0.0,3.0,78,0.00,,,0.00,0,weatherlink.com 1.10,2013-04-25 07:42:00,
2013-04-25 02:57:00,39.3,33.0,30.26,SSE,155,0.0,0.0,78,0.00,,,0.00,0,weatherlink.com 1.10,2013-04-25 07:57:00,
2013-04-25 03:12:00,38.9,33.0,30.26,SSE,155,0.0,2.0,79,0.00,,,0.00,0,weatherlink.com 1.10,2013-04-25 08:12:00,
2013-04-25 03:27:00,38.8,33.0,30.27,SSE,155,0.0,1.0,80,0.00,,,0.00,0,weatherlink.com 1.10,2013-04-25 08:27:00,
2013-04-25 03:42:00,38.4,33.0,30.26,SSE,155,0.0,1.0,80,0.00,,,0.00,0,weatherlink.com 1.10,2013-04-25 08:42:00,
2013-04-25 03:57:00,38.0,32.0,30.27,SSE,155,0.0,1.0,80,0.00,,,0.00,0,weatherlink.com 1.10,2013-04-25 08:57:00,
2013-04-25 04:12:00,37.7,32.0,30.27,SSE,155,0.0,0.0,81,0.00,,,0.00,0,weatherlink.com 1.10,2013-04-25 09:12:00,
2013-04-25 04:27:00,37.2,32.0,30.27,SSE,155,0.0,0.0,81,0.00,,,0.00,0,weatherlink.com 1.10,2013-04-25 09:27:00,
2013-04-25 04:42:00,36.7,32.0,30.27,SSE,155,0.0,0.0,82,0.00,,,0.00,0,weatherlink.com 1.10,2013-04-25 09:42:00,
2013-04-25 04:57:00,36.2,32.0,30.27,SSE,155,0.0,1.0,83,0.00,,,0.00,0,weatherlink.com 1.10,2013-04-25 09:57:00,
2013-04-25 05:12:00,35.9,32.0,30.27,SSE,155,0.0,0.0,84,0.00,,,0.00,0,weatherlink.com 1.10,2013-04-25 10:12:00,
2013-04-25 05:27:00,35.7,31.0,30.28,SSE,155,0.0,1.0,84,0.00,,,0.00,0,weatherlink.com 1.10,2013-04-25 10:27:00,
2013-04-25 05:42:00,35.4,31.0,30.28,SSE,155,0.0,0.0,85,0.00,,,0.00,0,weatherlink.com 1.10,2013-04-25 10:42:00,
2013-04-25 05:57:00,35.2,31.0,30.28,SSE,155,0.0,0.0,85,0.00,,,0.00,0,weatherlink.com 1.10,2013-04-25 10:57:00,
2013-04-25 06:12:00,35.1,31.0,30.29,SSE,155,0.0,2.0,86,0.00,,,0.00,0,weatherlink.com 1.10,2013-04-25 11:12:00,
2013-04-25 06:27:00,35.0,31.0,30.29,SSE,155,0.0,1.0,86,0.00,,,0.00,0,weatherlink.com 1.10,2013-04-25 11:27:00,
2013-04-25 06:43:00,34.8,31.0,30.30,SSE,155,0.0,1.0,86,0.00,,,0.00,12,weatherlink.com 1.10,2013-04-25 11:43:00,
2013-04-25 06:49:00,34.7,30.9,30.30,SSE,155,0.0,0.0,86,0.00,,,0.00,19,Wunderground v.1.15,2013-04-25 11:49:00,
2013-04-25 06:55:00,34.7,31.2,30.30,SSE,155,0.0,0.0,87,0.00,,,0.00,23,Wunderground v.1.15,2013-04-25 11:55:00,
2013-04-25 07:01:00,34.8,31.3,30.31,SSE,155,0.0,0.0,87,0.00,,,0.00,32,Wunderground v.1.15,2013-04-25 12:01:00,
2013-04-25 07:07:00,35.1,31.9,30.31,SSE,155,0.0,0.0,88,0.00,,,0.00,42,Wunderground v.1.15,2013-04-25 12:07:00,
2013-04-25 07:13:00,35.5,32.3,30.31,SSE,155,0.0,0.0,88,0.00,,,0.00,54,Wunderground v.1.15,2013-04-25 12:13:00,
2013-04-25 07:20:00,36.2,33.0,30.31,SSE,155,0.0,0.0,88,0.00,,,0.00,69,Wunderground v.1.15,2013-04-25 12:20:00,
2013-04-25 07:25:00,37.0,34.1,30.31,SSE,155,0.0,0.0,89,0.00,,,0.00,84,Wunderground v.1.15,2013-04-25 12:25:00,
2013-04-25 07:31:00,37.8,34.8,30.31,SSE,155,0.0,0.0,89,0.00,,,0.00,102,Wunderground v.1.15,2013-04-25 12:31:00,
2013-04-25 07:37:00,38.9,35.6,30.31,SSE,155,0.0,0.0,88,0.00,,,0.00,120,Wunderground v.1.15,2013-04-25 12:37:00,
2013-04-25 07:43:00,39.7,36.1,30.31,SSE,155,0.0,0.0,87,0.00,,,0.00,141,Wunderground v.1.15,2013-04-25 12:43:00,
2013-04-25 07:49:00,40.4,36.5,30.32,SSE,155,0.0,0.0,86,0.00,,,0.00,162,Wunderground v.1.15,2013-04-25 12:49:00,
2013-04-25 07:55:00,41.3,37.4,30.32,SSE,155,0.0,1.0,86,0.00,,,0.00,183,Wunderground v.1.15,2013-04-25 12:55:00,
2013-04-25 08:01:00,41.9,37.4,30.32,SSE,155,0.0,1.0,84,0.00,,,0.00,206,Wunderground v.1.15,2013-04-25 13:01:00,
2013-04-25 08:07:00,43.1,38.3,30.32,SSE,155,0.0,1.0,83,0.00,,,0.00,225,Wunderground v.1.15,2013-04-25 13:07:00,
2013-04-25 08:13:00,44.0,38.2,30.32,SSE,155,0.0,0.0,80,0.00,,,0.00,244,Wunderground v.1.15,2013-04-25 13:13:00,
2013-04-25 08:19:00,44.5,38.1,30.31,SSE,155,1.0,1.0,78,0.00,,,0.00,265,Wunderground v.1.15,2013-04-25 13:19:00,
2013-04-25 08:26:00,45.1,39.0,30.31,SSE,155,1.0,1.0,79,0.00,,,0.00,285,Wunderground v.1.15,2013-04-25 13:26:00,
2013-04-25 08:31:00,45.9,39.4,30.31,SSE,155,0.0,0.0,78,0.00,,,0.00,301,Wunderground v.1.15,2013-04-25 13:31:00,
2013-04-25 08:37:00,46.8,40.3,30.32,SSE,155,0.0,1.0,78,0.00,,,0.00,320,Wunderground v.1.15,2013-04-25 13:37:00,
2013-04-25 08:43:00,47.2,39.3,30.32,SSE,155,1.0,3.0,74,0.00,,,0.00,338,Wunderground v.1.15,2013-04-25 13:43:00,
2013-04-25 08:49:00,47.9,39.7,30.32,SSE,155,1.0,1.0,73,0.00,,,0.00,360,Wunderground v.1.15,2013-04-25 13:49:00,
2013-04-25 08:56:00,48.8,40.5,30.32,SSE,155,1.0,1.0,73,0.00,,,0.00,381,Wunderground v.1.15,2013-04-25 13:56:00,
2013-04-25 09:01:00,49.8,40.4,30.32,SSE,155,0.0,2.0,70,0.00,,,0.00,399,Wunderground v.1.15,2013-04-25 14:01:00,
2013-04-25 09:08:00,50.7,41.3,30.32,SSE,155,0.0,2.0,70,0.00,,,0.00,420,Wunderground v.1.15,2013-04-25 14:08:00,
2013-04-25 09:13:00,50.3,40.1,30.31,SSE,155,1.0,2.0,68,0.00,,,0.00,438,Wunderground v.1.15,2013-04-25 14:13:00,
2013-04-25 09:19:00,50.3,40.9,30.31,SSE,155,1.0,1.0,70,0.00,,,0.00,455,Wunderground v.1.15,2013-04-25 14:19:00,
2013-04-25 09:25:00,51.3,42.6,30.31,SE,146,1.0,1.0,72,0.00,,,0.00,476,Wunderground v.1.15,2013-04-25 14:25:00,
2013-04-25 09:30:00,52.4,42.0,30.31,SE,146,0.0,4.0,67,0.00,,,0.00,492,weatherlink.com 1.10,2013-04-25 14:30:00,
2013-04-25 09:36:00,53.2,40.5,30.31,SE,144,1.0,2.0,62,0.00,,,0.00,510,Wunderground v.1.15,2013-04-25 14:36:00,
2013-04-25 09:41:00,52.6,40.4,30.31,SE,141,1.0,3.0,63,0.00,,,0.00,527,Wunderground v.1.15,2013-04-25 14:41:00,
2013-04-25 09:48:00,52.7,40.9,30.31,SE,141,2.0,3.0,64,0.00,,,0.00,548,Wunderground v.1.15,2013-04-25 14:48:00,
2013-04-25 09:53:00,53.9,40.8,30.31,SE,141,1.0,2.0,61,0.00,,,0.00,564,Wunderground v.1.15,2013-04-25 14:53:00,
2013-04-25 09:59:00,55.1,41.0,30.31,SE,142,1.0,1.0,59,0.00,,,0.00,582,Wunderground v.1.15,2013-04-25 14:59:00,
2013-04-25 10:05:00,55.8,40.3,30.31,SE,134,1.0,3.0,56,0.00,,,0.00,601,Wunderground v.1.15,2013-04-25 15:05:00,
2013-04-25 10:11:00,56.2,40.7,30.31,SE,136,1.0,3.0,56,0.00,,,0.00,619,Wunderground v.1.15,2013-04-25 15:11:00,
2013-04-25 10:17:00,56.6,40.6,30.31,SE,136,2.0,4.0,55,0.00,,,0.00,633,Wunderground v.1.15,2013-04-25 15:17:00,
2013-04-25 10:23:00,57.6,41.5,30.31,SE,144,2.0,4.0,55,0.00,,,0.00,650,Wunderground v.1.15,2013-04-25 15:23:00,
2013-04-25 10:29:00,58.0,41.4,30.31,SE,144,2.0,3.0,54,0.00,,,0.00,668,Wunderground v.1.15,2013-04-25 15:29:00,
2013-04-25 10:35:00,58.2,40.6,30.31,SE,144,2.0,3.0,52,0.00,,,0.00,680,Wunderground v.1.15,2013-04-25 15:35:00,
2013-04-25 10:41:00,58.6,39.5,30.31,SE,145,2.0,3.0,49,0.00,,,0.00,696,Wunderground v.1.15,2013-04-25 15:41:00,
2013-04-25 10:47:00,58.5,39.4,30.31,SSE,162,2.0,4.0,49,0.00,,,0.00,714,Wunderground v.1.15,2013-04-25 15:47:00,
2013-04-25 10:53:00,58.2,40.1,30.31,South,180,3.0,7.0,51,0.00,,,0.00,721,Wunderground v.1.15,2013-04-25 15:53:00,
2013-04-25 10:59:00,58.5,40.9,30.31,South,180,2.0,2.0,52,0.00,,,0.00,738,Wunderground v.1.15,2013-04-25 15:59:00,
2013-04-25 11:05:00,59.5,40.3,30.31,South,173,2.0,3.0,49,0.00,,,0.00,752,Wunderground v.1.15,2013-04-25 16:05:00,
2013-04-25 11:11:00,59.4,39.7,30.31,South,171,2.0,2.0,48,0.00,,,0.00,772,Wunderground v.1.15,2013-04-25 16:11:00,
2013-04-25 11:17:00,59.7,41.5,30.31,SSE,161,2.0,2.0,51,0.00,,,0.00,784,Wunderground v.1.15,2013-04-25 16:17:00,
2013-04-25 11:23:00,59.4,38.6,30.31,South,169,2.0,2.0,46,0.00,,,0.00,786,Wunderground v.1.15,2013-04-25 16:23:00,
2013-04-25 11:29:00,59.4,39.1,30.31,SSE,167,2.0,4.0,47,0.00,,,0.00,805,Wunderground v.1.15,2013-04-25 16:29:00,
2013-04-25 11:36:00,60.0,40.2,30.31,SSE,166,2.0,4.0,48,0.00,,,0.00,816,Wunderground v.1.15,2013-04-25 16:36:00,
2013-04-25 11:41:00,60.9,39.4,30.31,SSE,161,2.0,4.0,45,0.00,,,0.00,830,Wunderground v.1.15,2013-04-25 16:41:00,
2013-04-25 11:47:00,60.6,38.0,30.30,SSE,162,1.0,4.0,43,0.00,,,0.00,830,weatherlink.com 1.10,2013-04-25 16:47:00,
2013-04-25 11:53:00,61.1,39.6,30.30,SSE,162,2.0,3.0,45,0.00,,,0.00,842,Wunderground v.1.15,2013-04-25 16:53:00,
2013-04-25 11:59:00,61.0,38.3,30.30,SE,142,1.0,1.0,43,0.00,,,0.00,856,Wunderground v.1.15,2013-04-25 16:59:00,
2013-04-25 12:05:00,61.3,40.9,30.30,SE,144,1.0,7.0,47,0.00,,,0.00,847,Wunderground v.1.15,2013-04-25 17:05:00,
2013-04-25 12:11:00,61.8,40.8,30.30,SE,145,2.0,3.0,46,0.00,,,0.00,874,Wunderground v.1.15,2013-04-25 17:11:00,
2013-04-25 12:17:00,62.0,38.0,30.30,SSE,163,2.0,7.0,41,0.00,,,0.00,882,weatherlink.com 1.10,2013-04-25 17:17:00,
2013-04-25 12:23:00,62.2,39.4,30.29,ESE,117,2.0,9.0,43,0.00,,,0.00,889,Wunderground v.1.15,2013-04-25 17:23:00,
2013-04-25 12:29:00,62.6,37.3,30.29,SE,146,2.0,2.0,39,0.00,,,0.00,895,Wunderground v.1.15,2013-04-25 17:29:00,
2013-04-25 12:35:00,62.8,39.4,30.30,SSE,163,3.0,5.0,42,0.00,,,0.00,875,Wunderground v.1.15,2013-04-25 17:35:00,
2013-04-25 12:41:00,63.4,38.6,30.29,SSE,164,2.0,3.0,40,0.00,,,0.00,911,Wunderground v.1.15,2013-04-25 17:41:00,
2013-04-25 12:47:00,63.9,40.0,30.29,SSE,163,1.0,6.0,41,0.00,,,0.00,912,weatherlink.com 1.10,2013-04-25 17:47:00,
2013-04-25 12:53:00,63.6,40.1,30.28,SSW,202,3.0,3.0,42,0.00,,,0.00,916,Wunderground v.1.15,2013-04-25 17:53:00,
2013-04-25 12:59:00,64.3,39.4,30.28,SSW,201,3.0,3.0,40,0.00,,,0.00,916,Wunderground v.1.15,2013-04-25 17:59:00,
2013-04-25 13:05:00,64.1,39.3,30.28,SSW,198,3.0,5.0,40,0.00,,,0.00,900,Wunderground v.1.15,2013-04-25 18:05:00,
2013-04-25 13:11:00,64.5,39.0,30.28,South,186,2.0,6.0,39,0.00,,,0.00,905,Wunderground v.1.15,2013-04-25 18:11:00,
2013-04-25 13:17:00,64.3,41.0,30.27,South,186,4.0,8.0,42,0.00,,,0.00,930,weatherlink.com 1.10,2013-04-25 18:17:00,
2013-04-25 13:23:00,64.6,38.4,30.27,SSW,198,2.0,7.0,38,0.00,,,0.00,926,Wunderground v.1.15,2013-04-25 18:23:00,
2013-04-25 13:30:00,64.8,39.9,30.27,South,172,3.0,3.0,40,0.00,,,0.00,918,Wunderground v.1.15,2013-04-25 18:30:00,
2013-04-25 13:35:00,65.4,41.1,30.26,SSE,167,2.0,5.0,41,0.00,,,0.00,912,Wunderground v.1.15,2013-04-25 18:35:00,
2013-04-25 13:41:00,66.1,41.1,30.26,SSE,150,2.0,2.0,40,0.00,,,0.00,905,Wunderground v.1.15,2013-04-25 18:41:00,
2013-04-25 13:47:00,65.9,41.5,30.26,SE,144,2.0,4.0,41,0.00,,,0.00,933,Wunderground v.1.15,2013-04-25 18:47:00,
2013-04-25 13:53:00,65.5,37.8,30.26,SSE,161,3.0,5.0,36,0.00,,,0.00,856,Wunderground v.1.15,2013-04-25 18:53:00,
2013-04-25 13:59:00,65.0,39.4,30.25,SSE,165,3.0,3.0,39,0.00,,,0.00,856,Wunderground v.1.15,2013-04-25 18:59:00,
2013-04-25 14:05:00,65.6,40.0,30.25,SSE,150,3.0,10.0,39,0.00,,,0.00,895,Wunderground v.1.15,2013-04-25 19:05:00,
2013-04-25 14:11:00,65.9,39.6,30.25,South,169,3.0,4.0,38,0.00,,,0.00,905,Wunderground v.1.15,2013-04-25 19:11:00,
2013-04-25 14:17:00,65.9,41.5,30.25,South,170,3.0,4.0,41,0.00,,,0.00,907,Wunderground v.1.15,2013-04-25 19:17:00,
2013-04-25 14:23:00,66.1,39.7,30.25,SSE,156,3.0,5.0,38,0.00,,,0.00,847,Wunderground v.1.15,2013-04-25 19:23:00,
2013-04-25 14:30:00,66.3,44.3,30.24,SSE,156,3.0,3.0,45,0.00,,,0.00,701,Wunderground v.1.15,2013-04-25 19:30:00,
2013-04-25 14:35:00,66.7,40.9,30.24,SSE,164,2.0,8.0,39,0.00,,,0.00,777,Wunderground v.1.15,2013-04-25 19:35:00,
2013-04-25 14:41:00,66.6,42.2,30.24,SSE,161,4.0,4.0,41,0.00,,,0.00,879,Wunderground v.1.15,2013-04-25 19:41:00,
2013-04-25 14:47:00,66.6,41.5,30.23,SSE,162,3.0,4.0,40,0.00,,,0.00,853,Wunderground v.1.15,2013-04-25 19:47:00,
2013-04-25 14:53:00,66.6,40.2,30.23,SE,134,3.0,5.0,38,0.00,,,0.00,816,Wunderground v.1.15,2013-04-25 19:53:00,
2013-04-25 14:59:00,67.0,42.5,30.23,SSE,165,3.0,3.0,41,0.00,,,0.00,795,Wunderground v.1.15,2013-04-25 19:59:00,
2013-04-25 15:05:00,67.5,41.0,30.23,SW,217,4.0,8.0,38,0.00,,,0.00,838,Wunderground v.1.15,2013-04-25 20:05:00,
2013-04-25 15:12:00,67.7,41.2,30.23,SW,223,4.0,4.0,38,0.00,,,0.00,756,Wunderground v.1.15,2013-04-25 20:12:00,
2013-04-25 15:17:00,67.7,41.8,30.22,SSW,197,3.0,5.0,39,0.00,,,0.00,745,Wunderground v.1.15,2013-04-25 20:17:00,
2013-04-25 15:23:00,67.7,39.8,30.22,SW,222,4.0,5.0,36,0.00,,,0.00,802,Wunderground v.1.15,2013-04-25 20:23:00,
2013-04-25 15:29:00,67.8,41.3,30.22,WSW,241,4.0,4.0,38,0.00,,,0.00,691,Wunderground v.1.15,2013-04-25 20:29:00,
2013-04-25 15:35:00,68.0,41.4,30.22,WSW,245,4.0,6.0,38,0.00,,,0.00,728,Wunderground v.1.15,2013-04-25 20:35:00,
2013-04-25 15:41:00,68.3,40.3,30.21,SW,228,4.0,4.0,36,0.00,,,0.00,735,Wunderground v.1.15,2013-04-25 20:41:00,
2013-04-25 15:47:00,68.3,40.3,30.20,SE,137,5.0,13.0,36,0.00,,,0.00,738,Wunderground v.1.15,2013-04-25 20:47:00,
2013-04-25 15:54:00,68.1,40.1,30.20,SW,228,5.0,7.0,36,0.00,,,0.00,717,Wunderground v.1.15,2013-04-25 20:54:00,
2013-04-25 15:59:00,68.2,39.5,30.20,WSW,240,4.0,4.0,35,0.00,,,0.00,724,Wunderground v.1.15,2013-04-25 20:59:00,
2013-04-25 16:05:00,68.4,38.0,30.20,SSW,210,2.0,9.0,33,0.00,,,0.00,671,weatherlink.com 1.10,2013-04-25 21:05:00,
2013-04-25 16:11:00,68.4,41.1,30.20,SSW,200,4.0,4.0,37,0.00,,,0.00,619,Wunderground v.1.15,2013-04-25 21:11:00,
2013-04-25 16:17:00,68.3,40.3,30.20,SW,234,4.0,5.0,36,0.00,,,0.00,657,Wunderground v.1.15,2013-04-25 21:17:00,
2013-04-25 16:23:00,68.4,39.7,30.19,WSW,257,4.0,7.0,35,0.00,,,0.00,543,Wunderground v.1.15,2013-04-25 21:23:00,
2013-04-25 16:29:00,68.6,43.3,30.18,WSW,258,3.0,5.0,40,0.00,,,0.00,540,Wunderground v.1.15,2013-04-25 21:29:00,
2013-04-25 16:35:00,68.6,42.0,30.18,West,265,3.0,5.0,38,0.00,,,0.00,552,Wunderground v.1.15,2013-04-25 21:35:00,
2013-04-25 16:41:00,68.6,42.0,30.18,WSW,240,4.0,7.0,38,0.00,,,0.00,719,Wunderground v.1.15,2013-04-25 21:41:00,
2013-04-25 16:47:00,68.5,41.2,30.18,SW,214,4.0,7.0,37,0.00,,,0.00,417,Wunderground v.1.15,2013-04-25 21:47:00,
2013-04-25 16:53:00,68.5,40.5,30.18,SSE,164,4.0,8.0,36,0.00,,,0.00,443,Wunderground v.1.15,2013-04-25 21:53:00,
2013-04-25 16:59:00,68.3,41.0,30.18,ESE,108,4.0,4.0,37,0.00,,,0.00,703,Wunderground v.1.15,2013-04-25 21:59:00,
2013-04-25 17:05:00,68.7,40.0,30.18,SSW,192,7.0,9.0,35,0.00,,,0.00,522,weatherlink.com 1.10,2013-04-25 22:05:00,
2013-04-25 17:11:00,68.9,40.1,30.17,WSW,247,4.0,4.0,35,0.00,,,0.00,591,Wunderground v.1.15,2013-04-25 22:11:00,
2013-04-25 17:17:00,69.0,39.4,30.17,SSW,198,4.0,5.0,34,0.00,,,0.00,540,Wunderground v.1.15,2013-04-25 22:17:00,
2013-04-25 17:23:00,68.8,40.0,30.17,SSE,167,5.0,8.0,35,0.00,,,0.00,548,Wunderground v.1.15,2013-04-25 22:23:00,
2013-04-25 17:29:00,69.2,42.5,30.17,SSE,165,4.0,4.0,38,0.00,,,0.00,492,Wunderground v.1.15,2013-04-25 22:29:00,
2013-04-25 17:35:00,69.5,42.0,30.17,SSW,200,5.0,8.0,37,0.00,,,0.00,497,weatherlink.com 1.10,2013-04-25 22:35:00,
2013-04-25 17:50:00,67.9,42.0,30.17,South,171,2.0,10.0,39,0.00,,,0.00,338,weatherlink.com 1.10,2013-04-25 22:50:00,
2013-04-25 18:05:00,67.6,42.0,30.17,SW,236,2.0,11.0,40,0.00,,,0.00,162,weatherlink.com 1.10,2013-04-25 23:05:00,
2013-04-25 18:20:00,67.1,42.0,30.16,SSW,200,1.0,10.0,41,0.00,,,0.00,302,weatherlink.com 1.10,2013-04-25 23:20:00,
2013-04-25 18:35:00,65.9,41.0,30.16,SE,139,2.0,8.0,41,0.00,,,0.00,165,weatherlink.com 1.10,2013-04-25 23:35:00,
2013-04-25 18:50:00,65.4,42.0,30.15,SSW,204,2.0,10.0,43,0.00,,,0.00,116,weatherlink.com 1.10,2013-04-25 23:50:00,
2013-04-25 19:05:00,64.5,42.0,30.15,South,184,4.0,6.0,44,0.00,,,0.00,58,weatherlink.com 1.10,2013-04-26 00:05:00,
2013-04-25 19:20:00,63.8,42.0,30.15,ESE,121,0.0,5.0,46,0.00,,,0.00,44,weatherlink.com 1.10,2013-04-26 00:20:00,
2013-04-25 19:35:00,63.0,41.0,30.15,SSE,166,0.0,0.0,45,0.00,,,0.00,23,weatherlink.com 1.10,2013-04-26 00:35:00,
2013-04-25 19:50:00,62.2,41.0,30.14,SSE,165,0.0,0.0,46,0.00,,,0.00,11,weatherlink.com 1.10,2013-04-26 00:50:00,
2013-04-25 20:05:00,61.8,41.0,30.14,WNW,298,0.0,0.0,47,0.00,,,0.00,0,weatherlink.com 1.10,2013-04-26 01:05:00,
2013-04-25 20:21:00,61.1,41.0,30.14,ESE,105,0.0,0.0,48,0.00,,,0.00,0,weatherlink.com 1.10,2013-04-26 01:21:00,
2013-04-25 20:36:00,60.5,41.0,30.14,NNE,29,0.0,0.0,49,0.00,,,0.00,0,weatherlink.com 1.10,2013-04-26 01:36:00,
2013-04-25 20:51:00,60.3,41.0,30.14,NNE,25,0.0,0.0,49,0.00,,,0.00,0,weatherlink.com 1.10,2013-04-26 01:51:00,
2013-04-25 21:06:00,60.1,41.0,30.14,SE,138,0.0,0.0,50,0.00,,,0.00,0,weatherlink.com 1.10,2013-04-26 02:06:00,
2013-04-25 21:21:00,59.6,41.0,30.14,South,175,0.0,0.0,51,0.00,,,0.00,0,weatherlink.com 1.10,2013-04-26 02:21:00,
2013-04-25 21:36:00,59.6,41.0,30.14,ESE,106,0.0,0.0,51,0.00,,,0.00,0,weatherlink.com 1.10,2013-04-26 02:36:00,
2013-04-25 21:51:00,59.6,41.0,30.14,ESE,119,0.0,0.0,51,0.00,,,0.00,0,weatherlink.com 1.10,2013-04-26 02:51:00,
2013-04-25 22:06:00,59.7,41.0,30.15,SE,124,0.0,0.0,50,0.00,,,0.00,0,weatherlink.com 1.10,2013-04-26 03:06:00,
2013-04-25 22:21:00,59.5,41.0,30.14,SE,143,0.0,0.0,50,0.00,,,0.00,0,weatherlink.com 1.10,2013-04-26 03:21:00,
2013-04-25 22:36:00,59.0,40.0,30.14,East,101,0.0,0.0,50,0.00,,,0.00,0,weatherlink.com 1.10,2013-04-26 03:36:00,
2013-04-25 22:51:00,58.4,41.0,30.13,ENE,60,0.0,0.0,52,0.00,,,0.00,0,weatherlink.com 1.10,2013-04-26 03:51:00,
2013-04-25 23:06:00,57.6,40.0,30.13,SE,128,0.0,0.0,53,0.00,,,0.00,0,weatherlink.com 1.10,2013-04-26 04:06:00,
2013-04-25 23:21:00,56.9,40.0,30.13,South,169,0.0,0.0,53,0.00,,,0.00,0,weatherlink.com 1.10,2013-04-26 04:21:00,
2013-04-25 23:36:00,56.5,40.0,30.13,ESE,118,0.0,0.0,54,0.00,,,0.00,0,weatherlink.com 1.10,2013-04-26 04:36:00,
2013-04-25 23:51:00,56.0,40.0,30.13,ESE,114,0.0,0.0,55,0.00,,,0.00,0,weatherlink.com 1.10,2013-04-26 04:51:00,